sensor_id;sensor_type;location;lat;lon;timestamp;P1;durP1;ratioP1;P2;durP2;ratioP2
12798;SDS011;19250;42.646;26.980;2022-09-29T00:01:24;7.32;;;6.07;;
12798;SDS011;19250;42.646;26.980;2022-09-29T00:03:51;9.38;;;6.68;;
12798;SDS011;19250;42.646;26.980;2022-09-29T00:06:19;10.52;;;7.50;;
12798;SDS011;19250;42.646;26.980;2022-09-29T00:08:46;9.57;;;8.50;;
12798;SDS011;19250;42.646;26.980;2022-09-29T00:11:15;11.43;;;9.73;;
12798;SDS011;19250;42.646;26.980;2022-09-29T00:13:43;12.63;;;10.77;;
12798;SDS011;19250;42.646;26.980;2022-09-29T00:16:13;10.63;;;8.75;;
12798;SDS011;19250;42.646;26.980;2022-09-29T00:18:41;9.85;;;6.22;;
12798;SDS011;19250;42.646;26.980;2022-09-29T00:21:08;11.40;;;7.15;;
12798;SDS011;19250;42.646;26.980;2022-09-29T00:23:38;13.00;;;10.15;;
12798;SDS011;19250;42.646;26.980;2022-09-29T00:26:06;18.55;;;12.85;;
12798;SDS011;19250;42.646;26.980;2022-09-29T00:28:35;22.95;;;15.55;;
12798;SDS011;19250;42.646;26.980;2022-09-29T00:31:03;13.00;;;9.13;;
12798;SDS011;19250;42.646;26.980;2022-09-29T00:33:34;11.88;;;8.48;;
12798;SDS011;19250;42.646;26.980;2022-09-29T00:36:05;17.73;;;12.25;;
12798;SDS011;19250;42.646;26.980;2022-09-29T00:38:33;14.68;;;11.23;;
12798;SDS011;19250;42.646;26.980;2022-09-29T00:41:02;12.63;;;9.27;;
12798;SDS011;19250;42.646;26.980;2022-09-29T00:43:47;10.37;;;7.07;;
12798;SDS011;19250;42.646;26.980;2022-09-29T00:46:16;6.57;;;5.13;;
12798;SDS011;19250;42.646;26.980;2022-09-29T00:48:50;7.72;;;5.25;;
12798;SDS011;19250;42.646;26.980;2022-09-29T00:51:19;6.13;;;5.53;;
12798;SDS011;19250;42.646;26.980;2022-09-29T00:53:47;7.05;;;5.60;;
12798;SDS011;19250;42.646;26.980;2022-09-29T00:56:15;7.03;;;5.20;;
12798;SDS011;19250;42.646;26.980;2022-09-29T00:58:46;6.47;;;5.27;;
12798;SDS011;19250;42.646;26.980;2022-09-29T01:01:19;6.10;;;5.10;;
12798;SDS011;19250;42.646;26.980;2022-09-29T01:03:46;6.80;;;4.40;;
12798;SDS011;19250;42.646;26.980;2022-09-29T01:06:18;5.22;;;3.78;;
12798;SDS011;19250;42.646;26.980;2022-09-29T01:08:50;6.32;;;4.10;;
12798;SDS011;19250;42.646;26.980;2022-09-29T01:11:22;5.18;;;3.97;;
12798;SDS011;19250;42.646;26.980;2022-09-29T01:13:49;8.15;;;4.00;;
12798;SDS011;19250;42.646;26.980;2022-09-29T01:16:18;4.30;;;3.90;;
12798;SDS011;19250;42.646;26.980;2022-09-29T01:18:46;5.20;;;4.10;;
12798;SDS011;19250;42.646;26.980;2022-09-29T01:21:18;5.18;;;4.10;;
12798;SDS011;19250;42.646;26.980;2022-09-29T01:24:04;4.45;;;4.00;;
12798;SDS011;19250;42.646;26.980;2022-09-29T01:26:57;7.53;;;4.80;;
12798;SDS011;19250;42.646;26.980;2022-09-29T01:32:55;5.82;;;4.60;;
12798;SDS011;19250;42.646;26.980;2022-09-29T01:35:36;5.60;;;4.35;;
12798;SDS011;19250;42.646;26.980;2022-09-29T01:38:14;5.43;;;4.38;;
12798;SDS011;19250;42.646;26.980;2022-09-29T01:40:57;6.90;;;4.55;;
12798;SDS011;19250;42.646;26.980;2022-09-29T01:43:30;4.88;;;4.40;;
12798;SDS011;19250;42.646;26.980;2022-09-29T01:46:01;7.78;;;5.20;;
12798;SDS011;19250;42.646;26.980;2022-09-29T01:48:32;6.83;;;5.10;;
12798;SDS011;19250;42.646;26.980;2022-09-29T01:51:04;7.53;;;5.33;;
12798;SDS011;19250;42.646;26.980;2022-09-29T01:53:36;8.03;;;5.70;;
12798;SDS011;19250;42.646;26.980;2022-09-29T01:56:08;5.65;;;5.07;;
12798;SDS011;19250;42.646;26.980;2022-09-29T01:58:41;5.80;;;5.20;;
12798;SDS011;19250;42.646;26.980;2022-09-29T02:01:14;6.88;;;5.47;;
12798;SDS011;19250;42.646;26.980;2022-09-29T02:03:46;8.07;;;6.00;;
12798;SDS011;19250;42.646;26.980;2022-09-29T02:06:18;8.10;;;5.95;;
12798;SDS011;19250;42.646;26.980;2022-09-29T02:08:50;7.07;;;4.78;;
12798;SDS011;19250;42.646;26.980;2022-09-29T02:11:20;7.78;;;5.53;;
12798;SDS011;19250;42.646;26.980;2022-09-29T02:13:49;7.38;;;5.38;;
12798;SDS011;19250;42.646;26.980;2022-09-29T02:16:20;6.72;;;5.43;;
12798;SDS011;19250;42.646;26.980;2022-09-29T02:18:53;6.75;;;5.40;;
12798;SDS011;19250;42.646;26.980;2022-09-29T02:21:23;7.57;;;5.25;;
12798;SDS011;19250;42.646;26.980;2022-09-29T02:23:53;7.50;;;5.07;;
12798;SDS011;19250;42.646;26.980;2022-09-29T02:26:20;7.22;;;5.10;;
12798;SDS011;19250;42.646;26.980;2022-09-29T02:28:49;7.53;;;4.68;;
12798;SDS011;19250;42.646;26.980;2022-09-29T02:31:17;7.15;;;4.75;;
12798;SDS011;19250;42.646;26.980;2022-09-29T02:33:45;6.38;;;4.93;;
12798;SDS011;19250;42.646;26.980;2022-09-29T02:36:17;7.38;;;5.40;;
12798;SDS011;19250;42.646;26.980;2022-09-29T02:38:52;6.85;;;5.60;;
12798;SDS011;19250;42.646;26.980;2022-09-29T02:41:26;7.93;;;5.80;;
12798;SDS011;19250;42.646;26.980;2022-09-29T02:44:14;7.53;;;5.75;;
12798;SDS011;19250;42.646;26.980;2022-09-29T02:49:53;7.18;;;6.47;;
12798;SDS011;19250;42.646;26.980;2022-09-29T02:52:36;8.15;;;6.60;;
12798;SDS011;19250;42.646;26.980;2022-09-29T02:55:13;8.20;;;6.68;;
12798;SDS011;19250;42.646;26.980;2022-09-29T02:57:46;8.05;;;6.72;;
12798;SDS011;19250;42.646;26.980;2022-09-29T03:00:19;7.28;;;6.13;;
12798;SDS011;19250;42.646;26.980;2022-09-29T03:02:47;8.80;;;6.40;;
12798;SDS011;19250;42.646;26.980;2022-09-29T03:05:15;7.18;;;6.20;;
12798;SDS011;19250;42.646;26.980;2022-09-29T03:07:45;7.43;;;5.95;;
12798;SDS011;19250;42.646;26.980;2022-09-29T03:10:13;7.10;;;5.45;;
12798;SDS011;19250;42.646;26.980;2022-09-29T03:12:42;8.75;;;5.75;;
12798;SDS011;19250;42.646;26.980;2022-09-29T03:15:10;9.30;;;6.65;;
12798;SDS011;19250;42.646;26.980;2022-09-29T03:17:38;8.00;;;6.73;;
12798;SDS011;19250;42.646;26.980;2022-09-29T03:20:06;9.15;;;6.88;;
12798;SDS011;19250;42.646;26.980;2022-09-29T03:22:33;11.25;;;6.90;;
12798;SDS011;19250;42.646;26.980;2022-09-29T03:25:02;7.72;;;6.75;;
12798;SDS011;19250;42.646;26.980;2022-09-29T03:27:31;8.88;;;7.22;;
12798;SDS011;19250;42.646;26.980;2022-09-29T03:30:01;9.88;;;8.13;;
12798;SDS011;19250;42.646;26.980;2022-09-29T03:32:28;9.55;;;7.28;;
12798;SDS011;19250;42.646;26.980;2022-09-29T03:34:55;8.25;;;7.32;;
12798;SDS011;19250;42.646;26.980;2022-09-29T03:37:22;10.23;;;7.70;;
12798;SDS011;19250;42.646;26.980;2022-09-29T03:39:49;8.82;;;7.18;;
12798;SDS011;19250;42.646;26.980;2022-09-29T03:42:18;10.48;;;7.18;;
12798;SDS011;19250;42.646;26.980;2022-09-29T03:44:48;10.48;;;7.80;;
12798;SDS011;19250;42.646;26.980;2022-09-29T03:47:15;11.55;;;7.80;;
12798;SDS011;19250;42.646;26.980;2022-09-29T03:49:42;12.40;;;8.40;;
12798;SDS011;19250;42.646;26.980;2022-09-29T03:52:10;11.02;;;8.30;;
12798;SDS011;19250;42.646;26.980;2022-09-29T03:54:37;9.65;;;7.28;;
12798;SDS011;19250;42.646;26.980;2022-09-29T03:57:05;11.68;;;7.35;;
12798;SDS011;19250;42.646;26.980;2022-09-29T03:59:33;15.15;;;9.82;;
12798;SDS011;19250;42.646;26.980;2022-09-29T04:02:00;14.98;;;8.68;;
12798;SDS011;19250;42.646;26.980;2022-09-29T04:04:28;11.52;;;7.93;;
12798;SDS011;19250;42.646;26.980;2022-09-29T04:06:55;9.65;;;5.80;;
12798;SDS011;19250;42.646;26.980;2022-09-29T04:09:22;7.97;;;5.80;;
12798;SDS011;19250;42.646;26.980;2022-09-29T04:11:50;8.00;;;5.28;;
12798;SDS011;19250;42.646;26.980;2022-09-29T04:14:17;11.32;;;8.07;;
12798;SDS011;19250;42.646;26.980;2022-09-29T04:16:45;9.85;;;6.93;;
12798;SDS011;19250;42.646;26.980;2022-09-29T04:19:13;10.75;;;7.35;;
12798;SDS011;19250;42.646;26.980;2022-09-29T04:21:40;12.52;;;8.18;;
12798;SDS011;19250;42.646;26.980;2022-09-29T04:24:07;10.32;;;7.28;;
12798;SDS011;19250;42.646;26.980;2022-09-29T04:26:34;10.43;;;7.05;;
12798;SDS011;19250;42.646;26.980;2022-09-29T04:29:02;9.63;;;6.20;;
12798;SDS011;19250;42.646;26.980;2022-09-29T04:31:29;7.60;;;6.07;;
12798;SDS011;19250;42.646;26.980;2022-09-29T04:33:58;7.28;;;6.10;;
12798;SDS011;19250;42.646;26.980;2022-09-29T04:36:25;9.52;;;6.50;;
12798;SDS011;19250;42.646;26.980;2022-09-29T04:38:52;7.85;;;6.93;;
12798;SDS011;19250;42.646;26.980;2022-09-29T04:41:19;7.75;;;6.53;;
12798;SDS011;19250;42.646;26.980;2022-09-29T04:43:46;8.68;;;6.50;;
12798;SDS011;19250;42.646;26.980;2022-09-29T04:46:14;11.45;;;6.43;;
12798;SDS011;19250;42.646;26.980;2022-09-29T04:48:41;9.32;;;6.38;;
12798;SDS011;19250;42.646;26.980;2022-09-29T04:51:09;9.00;;;6.30;;
12798;SDS011;19250;42.646;26.980;2022-09-29T04:53:37;11.82;;;7.57;;
12798;SDS011;19250;42.646;26.980;2022-09-29T04:56:05;10.60;;;6.70;;
12798;SDS011;19250;42.646;26.980;2022-09-29T04:58:33;10.95;;;6.55;;
12798;SDS011;19250;42.646;26.980;2022-09-29T05:01:03;11.00;;;6.78;;
12798;SDS011;19250;42.646;26.980;2022-09-29T05:03:32;15.07;;;8.02;;
12798;SDS011;19250;42.646;26.980;2022-09-29T05:05:59;13.57;;;8.10;;
12798;SDS011;19250;42.646;26.980;2022-09-29T05:08:28;12.98;;;7.88;;
12798;SDS011;19250;42.646;26.980;2022-09-29T05:10:55;9.45;;;6.30;;
12798;SDS011;19250;42.646;26.980;2022-09-29T05:13:22;11.43;;;7.03;;
12798;SDS011;19250;42.646;26.980;2022-09-29T05:15:53;10.83;;;6.67;;
12798;SDS011;19250;42.646;26.980;2022-09-29T05:18:21;10.50;;;6.30;;
12798;SDS011;19250;42.646;26.980;2022-09-29T05:20:48;10.38;;;6.35;;
12798;SDS011;19250;42.646;26.980;2022-09-29T05:23:16;9.53;;;6.37;;
12798;SDS011;19250;42.646;26.980;2022-09-29T05:25:45;11.48;;;6.43;;
12798;SDS011;19250;42.646;26.980;2022-09-29T05:28:12;11.50;;;7.95;;
12798;SDS011;19250;42.646;26.980;2022-09-29T05:30:40;9.48;;;7.53;;
12798;SDS011;19250;42.646;26.980;2022-09-29T05:33:08;12.15;;;6.80;;
12798;SDS011;19250;42.646;26.980;2022-09-29T05:35:35;12.98;;;6.18;;
12798;SDS011;19250;42.646;26.980;2022-09-29T05:38:03;9.63;;;5.70;;
12798;SDS011;19250;42.646;26.980;2022-09-29T05:40:30;7.88;;;5.97;;
12798;SDS011;19250;42.646;26.980;2022-09-29T05:42:58;9.77;;;7.07;;
12798;SDS011;19250;42.646;26.980;2022-09-29T05:45:26;13.15;;;9.15;;
12798;SDS011;19250;42.646;26.980;2022-09-29T05:47:53;12.10;;;6.82;;
12798;SDS011;19250;42.646;26.980;2022-09-29T05:50:21;10.02;;;6.70;;
12798;SDS011;19250;42.646;26.980;2022-09-29T05:52:48;9.80;;;6.75;;
12798;SDS011;19250;42.646;26.980;2022-09-29T05:55:17;13.05;;;6.93;;
12798;SDS011;19250;42.646;26.980;2022-09-29T05:57:46;11.50;;;7.22;;
12798;SDS011;19250;42.646;26.980;2022-09-29T06:00:15;9.10;;;7.13;;
12798;SDS011;19250;42.646;26.980;2022-09-29T06:02:42;12.48;;;7.70;;
12798;SDS011;19250;42.646;26.980;2022-09-29T06:05:10;12.07;;;7.10;;
12798;SDS011;19250;42.646;26.980;2022-09-29T06:07:37;8.45;;;6.53;;
12798;SDS011;19250;42.646;26.980;2022-09-29T06:10:04;10.30;;;6.30;;
12798;SDS011;19250;42.646;26.980;2022-09-29T06:12:34;9.13;;;5.47;;
12798;SDS011;19250;42.646;26.980;2022-09-29T06:15:02;7.40;;;5.00;;
12798;SDS011;19250;42.646;26.980;2022-09-29T06:17:32;6.70;;;4.40;;
12798;SDS011;19250;42.646;26.980;2022-09-29T06:20:00;7.18;;;4.50;;
12798;SDS011;19250;42.646;26.980;2022-09-29T06:22:27;7.28;;;4.93;;
12798;SDS011;19250;42.646;26.980;2022-09-29T06:24:55;7.00;;;4.68;;
12798;SDS011;19250;42.646;26.980;2022-09-29T06:27:22;9.10;;;4.95;;
12798;SDS011;19250;42.646;26.980;2022-09-29T06:29:49;8.60;;;5.80;;
12798;SDS011;19250;42.646;26.980;2022-09-29T06:32:17;7.73;;;4.60;;
12798;SDS011;19250;42.646;26.980;2022-09-29T06:34:45;6.53;;;3.90;;
12798;SDS011;19250;42.646;26.980;2022-09-29T06:37:30;7.85;;;4.05;;
12798;SDS011;19250;42.646;26.980;2022-09-29T06:40:00;7.95;;;4.38;;
12798;SDS011;19250;42.646;26.980;2022-09-29T06:42:27;6.50;;;3.90;;
12798;SDS011;19250;42.646;26.980;2022-09-29T06:44:54;7.57;;;4.10;;
12798;SDS011;19250;42.646;26.980;2022-09-29T06:47:22;7.20;;;3.90;;
12798;SDS011;19250;42.646;26.980;2022-09-29T06:49:51;9.90;;;4.85;;
12798;SDS011;19250;42.646;26.980;2022-09-29T06:52:18;11.30;;;8.47;;
12798;SDS011;19250;42.646;26.980;2022-09-29T06:54:45;9.57;;;6.53;;
12798;SDS011;19250;42.646;26.980;2022-09-29T06:57:12;9.97;;;6.63;;
12798;SDS011;19250;42.646;26.980;2022-09-29T06:59:40;11.63;;;5.35;;
12798;SDS011;19250;42.646;26.980;2022-09-29T07:02:08;10.07;;;5.97;;
12798;SDS011;19250;42.646;26.980;2022-09-29T07:04:36;20.45;;;18.35;;
12798;SDS011;19250;42.646;26.980;2022-09-29T07:07:05;8.88;;;5.95;;
12798;SDS011;19250;42.646;26.980;2022-09-29T07:09:32;14.47;;;10.30;;
12798;SDS011;19250;42.646;26.980;2022-09-29T07:11:59;19.60;;;17.47;;
12798;SDS011;19250;42.646;26.980;2022-09-29T07:14:27;26.13;;;22.77;;
12798;SDS011;19250;42.646;26.980;2022-09-29T07:16:57;33.05;;;29.77;;
12798;SDS011;19250;42.646;26.980;2022-09-29T07:19:24;11.82;;;9.60;;
12798;SDS011;19250;42.646;26.980;2022-09-29T07:21:53;9.80;;;5.32;;
12798;SDS011;19250;42.646;26.980;2022-09-29T07:24:21;14.15;;;10.95;;
12798;SDS011;19250;42.646;26.980;2022-09-29T07:26:49;14.63;;;13.13;;
12798;SDS011;19250;42.646;26.980;2022-09-29T07:29:16;13.05;;;10.15;;
12798;SDS011;19250;42.646;26.980;2022-09-29T07:31:43;13.82;;;8.15;;
12798;SDS011;19250;42.646;26.980;2022-09-29T07:34:11;11.57;;;5.88;;
12798;SDS011;19250;42.646;26.980;2022-09-29T07:36:38;15.32;;;12.02;;
12798;SDS011;19250;42.646;26.980;2022-09-29T07:39:05;12.40;;;8.45;;
12798;SDS011;19250;42.646;26.980;2022-09-29T07:41:34;17.42;;;14.40;;
12798;SDS011;19250;42.646;26.980;2022-09-29T07:44:01;8.47;;;5.40;;
12798;SDS011;19250;42.646;26.980;2022-09-29T07:46:29;11.60;;;5.68;;
12798;SDS011;19250;42.646;26.980;2022-09-29T07:48:56;11.87;;;6.63;;
12798;SDS011;19250;42.646;26.980;2022-09-29T07:51:24;10.83;;;5.90;;
12798;SDS011;19250;42.646;26.980;2022-09-29T07:53:51;10.23;;;5.50;;
12798;SDS011;19250;42.646;26.980;2022-09-29T07:56:19;11.50;;;5.00;;
12798;SDS011;19250;42.646;26.980;2022-09-29T07:58:49;10.43;;;4.72;;
12798;SDS011;19250;42.646;26.980;2022-09-29T08:01:17;8.48;;;4.60;;
12798;SDS011;19250;42.646;26.980;2022-09-29T08:03:48;9.40;;;5.27;;
12798;SDS011;19250;42.646;26.980;2022-09-29T08:06:17;9.38;;;5.00;;
12798;SDS011;19250;42.646;26.980;2022-09-29T08:08:44;9.30;;;4.90;;
12798;SDS011;19250;42.646;26.980;2022-09-29T08:11:15;10.82;;;4.85;;
12798;SDS011;19250;42.646;26.980;2022-09-29T08:13:44;9.10;;;4.90;;
12798;SDS011;19250;42.646;26.980;2022-09-29T08:16:13;9.60;;;5.03;;
12798;SDS011;19250;42.646;26.980;2022-09-29T08:18:41;8.65;;;4.60;;
12798;SDS011;19250;42.646;26.980;2022-09-29T08:21:09;11.88;;;6.20;;
12798;SDS011;19250;42.646;26.980;2022-09-29T08:23:38;8.17;;;5.40;;
12798;SDS011;19250;42.646;26.980;2022-09-29T08:26:07;9.70;;;5.03;;
12798;SDS011;19250;42.646;26.980;2022-09-29T08:28:36;10.30;;;5.22;;
12798;SDS011;19250;42.646;26.980;2022-09-29T08:31:04;12.35;;;5.60;;
12798;SDS011;19250;42.646;26.980;2022-09-29T08:33:34;10.00;;;5.07;;
12798;SDS011;19250;42.646;26.980;2022-09-29T08:36:02;10.60;;;4.85;;
12798;SDS011;19250;42.646;26.980;2022-09-29T08:38:38;7.38;;;4.88;;
12798;SDS011;19250;42.646;26.980;2022-09-29T08:41:09;8.73;;;5.10;;
12798;SDS011;19250;42.646;26.980;2022-09-29T08:43:48;9.70;;;5.22;;
12798;SDS011;19250;42.646;26.980;2022-09-29T08:46:22;10.50;;;5.38;;
12798;SDS011;19250;42.646;26.980;2022-09-29T08:49:02;10.48;;;5.03;;
12798;SDS011;19250;42.646;26.980;2022-09-29T08:51:36;7.88;;;4.68;;
12798;SDS011;19250;42.646;26.980;2022-09-29T08:54:14;7.03;;;4.70;;
12798;SDS011;19250;42.646;26.980;2022-09-29T08:56:59;7.80;;;4.32;;
12798;SDS011;19250;42.646;26.980;2022-09-29T08:59:28;7.13;;;4.57;;
12798;SDS011;19250;42.646;26.980;2022-09-29T09:01:59;7.82;;;4.60;;
12798;SDS011;19250;42.646;26.980;2022-09-29T09:04:43;8.98;;;4.60;;
12798;SDS011;19250;42.646;26.980;2022-09-29T09:07:30;13.60;;;5.05;;
12798;SDS011;19250;42.646;26.980;2022-09-29T09:10:13;8.32;;;4.65;;
12798;SDS011;19250;42.646;26.980;2022-09-29T09:12:57;9.60;;;5.20;;
12798;SDS011;19250;42.646;26.980;2022-09-29T09:15:49;14.07;;;9.57;;
12798;SDS011;19250;42.646;26.980;2022-09-29T09:21:32;7.50;;;4.20;;
12798;SDS011;19250;42.646;26.980;2022-09-29T09:24:14;7.63;;;4.37;;
12798;SDS011;19250;42.646;26.980;2022-09-29T09:26:47;8.87;;;4.40;;
12798;SDS011;19250;42.646;26.980;2022-09-29T09:29:16;8.67;;;4.40;;
12798;SDS011;19250;42.646;26.980;2022-09-29T09:31:51;9.60;;;4.80;;
12798;SDS011;19250;42.646;26.980;2022-09-29T09:34:25;8.75;;;5.00;;
12798;SDS011;19250;42.646;26.980;2022-09-29T09:36:58;8.00;;;4.70;;
12798;SDS011;19250;42.646;26.980;2022-09-29T09:39:34;7.28;;;4.07;;
12798;SDS011;19250;42.646;26.980;2022-09-29T09:42:05;6.57;;;4.22;;
12798;SDS011;19250;42.646;26.980;2022-09-29T09:44:41;7.50;;;3.83;;
12798;SDS011;19250;42.646;26.980;2022-09-29T09:47:17;7.70;;;4.25;;
12798;SDS011;19250;42.646;26.980;2022-09-29T09:49:51;8.43;;;4.53;;
12798;SDS011;19250;42.646;26.980;2022-09-29T09:52:23;6.28;;;3.83;;
12798;SDS011;19250;42.646;26.980;2022-09-29T09:54:55;6.28;;;4.47;;
12798;SDS011;19250;42.646;26.980;2022-09-29T10:00:24;10.35;;;4.57;;
12798;SDS011;19250;42.646;26.980;2022-09-29T10:02:56;6.13;;;3.53;;
12798;SDS011;19250;42.646;26.980;2022-09-29T10:05:30;6.25;;;4.03;;
12798;SDS011;19250;42.646;26.980;2022-09-29T10:08:03;6.57;;;4.18;;
12798;SDS011;19250;42.646;26.980;2022-09-29T10:10:32;6.40;;;4.10;;
12798;SDS011;19250;42.646;26.980;2022-09-29T10:13:00;5.32;;;3.92;;
12798;SDS011;19250;42.646;26.980;2022-09-29T10:15:30;7.32;;;4.40;;
12798;SDS011;19250;42.646;26.980;2022-09-29T10:18:04;5.60;;;3.80;;
12798;SDS011;19250;42.646;26.980;2022-09-29T10:20:37;6.27;;;4.27;;
12798;SDS011;19250;42.646;26.980;2022-09-29T10:26:07;5.63;;;3.97;;
12798;SDS011;19250;42.646;26.980;2022-09-29T10:28:40;5.90;;;4.05;;
12798;SDS011;19250;42.646;26.980;2022-09-29T10:31:15;7.25;;;4.30;;
12798;SDS011;19250;42.646;26.980;2022-09-29T10:33:45;8.30;;;4.80;;
12798;SDS011;19250;42.646;26.980;2022-09-29T10:36:15;5.82;;;3.67;;
12798;SDS011;19250;42.646;26.980;2022-09-29T10:38:47;4.95;;;3.75;;
12798;SDS011;19250;42.646;26.980;2022-09-29T10:41:16;4.88;;;3.70;;
12798;SDS011;19250;42.646;26.980;2022-09-29T10:43:44;7.45;;;4.50;;
12798;SDS011;19250;42.646;26.980;2022-09-29T10:46:32;8.13;;;3.45;;
12798;SDS011;19250;42.646;26.980;2022-09-29T10:49:09;4.72;;;3.28;;
12798;SDS011;19250;42.646;26.980;2022-09-29T10:51:40;5.18;;;2.80;;
12798;SDS011;19250;42.646;26.980;2022-09-29T10:54:15;5.97;;;2.77;;
12798;SDS011;19250;42.646;26.980;2022-09-29T10:56:44;5.07;;;3.30;;
12798;SDS011;19250;42.646;26.980;2022-09-29T10:59:14;5.53;;;2.85;;
12798;SDS011;19250;42.646;26.980;2022-09-29T11:01:44;7.35;;;3.70;;
12798;SDS011;19250;42.646;26.980;2022-09-29T11:04:15;5.43;;;3.08;;
12798;SDS011;19250;42.646;26.980;2022-09-29T11:06:46;6.95;;;3.03;;
12798;SDS011;19250;42.646;26.980;2022-09-29T11:09:34;4.75;;;2.60;;
12798;SDS011;19250;42.646;26.980;2022-09-29T11:12:03;4.45;;;3.08;;
12798;SDS011;19250;42.646;26.980;2022-09-29T11:14:38;8.32;;;3.30;;
12798;SDS011;19250;42.646;26.980;2022-09-29T11:17:19;7.72;;;3.95;;
12798;SDS011;19250;42.646;26.980;2022-09-29T11:19:48;6.15;;;3.60;;
12798;SDS011;19250;42.646;26.980;2022-09-29T11:22:25;6.68;;;4.20;;
12798;SDS011;19250;42.646;26.980;2022-09-29T11:25:20;6.93;;;3.58;;
12798;SDS011;19250;42.646;26.980;2022-09-29T11:28:16;5.88;;;3.85;;
12798;SDS011;19250;42.646;26.980;2022-09-29T11:30:54;7.22;;;4.25;;
12798;SDS011;19250;42.646;26.980;2022-09-29T11:33:36;7.03;;;4.30;;
12798;SDS011;19250;42.646;26.980;2022-09-29T11:36:15;9.10;;;4.38;;
12798;SDS011;19250;42.646;26.980;2022-09-29T11:38:56;6.87;;;4.33;;
12798;SDS011;19250;42.646;26.980;2022-09-29T11:41:42;7.32;;;4.18;;
12798;SDS011;19250;42.646;26.980;2022-09-29T11:44:22;6.28;;;4.32;;
12798;SDS011;19250;42.646;26.980;2022-09-29T11:47:05;6.17;;;4.23;;
12798;SDS011;19250;42.646;26.980;2022-09-29T11:49:50;6.60;;;4.47;;
12798;SDS011;19250;42.646;26.980;2022-09-29T11:55:27;6.57;;;4.70;;
12798;SDS011;19250;42.646;26.980;2022-09-29T11:58:06;6.47;;;4.20;;
12798;SDS011;19250;42.646;26.980;2022-09-29T12:00:51;6.22;;;4.50;;
12798;SDS011;19250;42.646;26.980;2022-09-29T12:03:33;8.65;;;4.80;;
12798;SDS011;19250;42.646;26.980;2022-09-29T12:06:29;7.72;;;4.43;;
12798;SDS011;19250;42.646;26.980;2022-09-29T12:09:11;9.15;;;5.13;;
12798;SDS011;19250;42.646;26.980;2022-09-29T12:11:52;8.90;;;4.60;;
12798;SDS011;19250;42.646;26.980;2022-09-29T12:14:29;6.57;;;4.10;;
12798;SDS011;19250;42.646;26.980;2022-09-29T12:17:06;6.60;;;4.25;;
12798;SDS011;19250;42.646;26.980;2022-09-29T12:19:37;7.93;;;4.40;;
12798;SDS011;19250;42.646;26.980;2022-09-29T12:22:07;7.30;;;4.45;;
12798;SDS011;19250;42.646;26.980;2022-09-29T12:24:37;8.23;;;4.60;;
12798;SDS011;19250;42.646;26.980;2022-09-29T12:27:10;8.88;;;5.20;;
12798;SDS011;19250;42.646;26.980;2022-09-29T12:29:45;8.87;;;4.90;;
12798;SDS011;19250;42.646;26.980;2022-09-29T12:32:20;7.75;;;4.70;;
12798;SDS011;19250;42.646;26.980;2022-09-29T12:34:53;7.30;;;5.07;;
12798;SDS011;19250;42.646;26.980;2022-09-29T12:37:25;9.90;;;5.47;;
12798;SDS011;19250;42.646;26.980;2022-09-29T12:40:02;6.70;;;4.90;;
12798;SDS011;19250;42.646;26.980;2022-09-29T12:42:45;12.00;;;5.68;;
12798;SDS011;19250;42.646;26.980;2022-09-29T12:45:24;9.02;;;4.93;;
12798;SDS011;19250;42.646;26.980;2022-09-29T12:47:58;6.95;;;4.70;;
12798;SDS011;19250;42.646;26.980;2022-09-29T12:50:39;7.65;;;5.18;;
12798;SDS011;19250;42.646;26.980;2022-09-29T12:53:11;8.05;;;5.40;;
12798;SDS011;19250;42.646;26.980;2022-09-29T12:55:45;10.23;;;5.57;;
12798;SDS011;19250;42.646;26.980;2022-09-29T12:58:20;9.73;;;5.60;;
12798;SDS011;19250;42.646;26.980;2022-09-29T13:00:54;8.93;;;5.10;;
12798;SDS011;19250;42.646;26.980;2022-09-29T13:06:37;7.38;;;4.78;;
12798;SDS011;19250;42.646;26.980;2022-09-29T13:12:20;7.65;;;5.07;;
12798;SDS011;19250;42.646;26.980;2022-09-29T13:17:57;9.40;;;5.60;;
12798;SDS011;19250;42.646;26.980;2022-09-29T13:20:40;10.60;;;5.22;;
12798;SDS011;19250;42.646;26.980;2022-09-29T13:26:33;5.82;;;4.43;;
12798;SDS011;19250;42.646;26.980;2022-09-29T13:29:12;8.70;;;4.78;;
12798;SDS011;19250;42.646;26.980;2022-09-29T13:31:42;7.50;;;5.35;;
12798;SDS011;19250;42.646;26.980;2022-09-29T13:34:18;6.30;;;4.60;;
12798;SDS011;19250;42.646;26.980;2022-09-29T13:36:52;7.35;;;4.50;;
12798;SDS011;19250;42.646;26.980;2022-09-29T13:39:23;6.03;;;4.25;;
12798;SDS011;19250;42.646;26.980;2022-09-29T13:41:54;8.15;;;4.90;;
12798;SDS011;19250;42.646;26.980;2022-09-29T13:44:22;6.60;;;4.70;;
12798;SDS011;19250;42.646;26.980;2022-09-29T13:46:52;5.03;;;4.40;;
12798;SDS011;19250;42.646;26.980;2022-09-29T13:49:28;6.45;;;4.82;;
12798;SDS011;19250;42.646;26.980;2022-09-29T13:51:56;9.35;;;5.88;;
12798;SDS011;19250;42.646;26.980;2022-09-29T13:54:27;10.43;;;5.18;;
12798;SDS011;19250;42.646;26.980;2022-09-29T13:59:59;7.65;;;5.35;;
12798;SDS011;19250;42.646;26.980;2022-09-29T14:03:05;12.57;;;7.13;;
12798;SDS011;19250;42.646;26.980;2022-09-29T14:06:07;9.90;;;5.80;;
12798;SDS011;19250;42.646;26.980;2022-09-29T14:08:41;12.95;;;6.82;;
12798;SDS011;19250;42.646;26.980;2022-09-29T14:11:13;10.32;;;6.65;;
12798;SDS011;19250;42.646;26.980;2022-09-29T14:13:47;6.72;;;5.85;;
12798;SDS011;19250;42.646;26.980;2022-09-29T14:19:18;7.85;;;5.70;;
12798;SDS011;19250;42.646;26.980;2022-09-29T14:22:02;7.63;;;5.37;;
12798;SDS011;19250;42.646;26.980;2022-09-29T14:24:41;8.27;;;7.13;;
12798;SDS011;19250;42.646;26.980;2022-09-29T14:30:08;10.00;;;6.43;;
12798;SDS011;19250;42.646;26.980;2022-09-29T14:32:41;10.35;;;5.80;;
12798;SDS011;19250;42.646;26.980;2022-09-29T14:35:18;7.80;;;6.28;;
12798;SDS011;19250;42.646;26.980;2022-09-29T14:37:58;6.80;;;5.40;;
12798;SDS011;19250;42.646;26.980;2022-09-29T14:40:30;9.95;;;6.32;;
12798;SDS011;19250;42.646;26.980;2022-09-29T14:43:01;9.32;;;6.63;;
12798;SDS011;19250;42.646;26.980;2022-09-29T14:45:30;10.48;;;7.45;;
12798;SDS011;19250;42.646;26.980;2022-09-29T14:48:22;7.43;;;6.63;;
12798;SDS011;19250;42.646;26.980;2022-09-29T14:51:13;7.60;;;5.97;;
12798;SDS011;19250;42.646;26.980;2022-09-29T14:54:07;8.38;;;5.75;;
12798;SDS011;19250;42.646;26.980;2022-09-29T14:56:45;6.65;;;5.40;;
12798;SDS011;19250;42.646;26.980;2022-09-29T14:59:25;7.15;;;5.78;;
12798;SDS011;19250;42.646;26.980;2022-09-29T15:02:12;6.35;;;5.20;;
12798;SDS011;19250;42.646;26.980;2022-09-29T15:04:46;6.65;;;5.38;;
12798;SDS011;19250;42.646;26.980;2022-09-29T15:07:15;9.50;;;6.28;;
12798;SDS011;19250;42.646;26.980;2022-09-29T15:09:48;7.93;;;5.72;;
12798;SDS011;19250;42.646;26.980;2022-09-29T15:12:19;9.27;;;6.20;;
12798;SDS011;19250;42.646;26.980;2022-09-29T15:14:48;8.52;;;5.97;;
12798;SDS011;19250;42.646;26.980;2022-09-29T15:20:12;9.23;;;6.95;;
12798;SDS011;19250;42.646;26.980;2022-09-29T15:22:59;9.40;;;6.28;;
12798;SDS011;19250;42.646;26.980;2022-09-29T15:25:39;9.90;;;6.70;;
12798;SDS011;19250;42.646;26.980;2022-09-29T15:28:09;12.20;;;6.70;;
12798;SDS011;19250;42.646;26.980;2022-09-29T15:30:41;7.30;;;6.10;;
12798;SDS011;19250;42.646;26.980;2022-09-29T15:33:14;8.80;;;6.30;;
12798;SDS011;19250;42.646;26.980;2022-09-29T15:35:47;9.90;;;6.22;;
12798;SDS011;19250;42.646;26.980;2022-09-29T15:38:28;10.30;;;5.90;;
12798;SDS011;19250;42.646;26.980;2022-09-29T15:41:03;8.32;;;7.53;;
12798;SDS011;19250;42.646;26.980;2022-09-29T15:43:41;10.95;;;8.63;;